sensor_id;sensor_type;location;lat;lon;timestamp;P1;durP1;ratioP1;P2;durP2;ratioP2
21769;SDS011;11046;49.558;8.674;2022-09-20T00:01:44;9.10;;;5.77;;
21769;SDS011;11046;49.558;8.674;2022-09-20T00:04:46;11.57;;;5.47;;
21769;SDS011;11046;49.558;8.674;2022-09-20T00:07:47;12.13;;;5.43;;
21769;SDS011;11046;49.558;8.674;2022-09-20T00:10:48;14.57;;;5.90;;
21769;SDS011;11046;49.558;8.674;2022-09-20T00:13:50;8.93;;;5.10;;
21769;SDS011;11046;49.558;8.674;2022-09-20T00:16:53;12.00;;;5.57;;
21769;SDS011;11046;49.558;8.674;2022-09-20T00:19:54;15.37;;;5.20;;
21769;SDS011;11046;49.558;8.674;2022-09-20T00:22:54;9.40;;;5.80;;
21769;SDS011;11046;49.558;8.674;2022-09-20T00:25:59;16.87;;;6.90;;
21769;SDS011;11046;49.558;8.674;2022-09-20T00:29:00;10.10;;;6.30;;
21769;SDS011;11046;49.558;8.674;2022-09-20T00:32:01;10.77;;;5.70;;
21769;SDS011;11046;49.558;8.674;2022-09-20T00:35:02;11.40;;;6.00;;
21769;SDS011;11046;49.558;8.674;2022-09-20T00:38:07;12.93;;;6.00;;
21769;SDS011;11046;49.558;8.674;2022-09-20T00:41:08;11.67;;;6.43;;
21769;SDS011;11046;49.558;8.674;2022-09-20T00:48:04;13.10;;;6.10;;
21769;SDS011;11046;49.558;8.674;2022-09-20T00:51:14;10.90;;;6.17;;
21769;SDS011;11046;49.558;8.674;2022-09-20T00:54:19;9.87;;;6.70;;
21769;SDS011;11046;49.558;8.674;2022-09-20T00:57:22;12.87;;;6.70;;
21769;SDS011;11046;49.558;8.674;2022-09-20T01:00:23;12.90;;;6.33;;
21769;SDS011;11046;49.558;8.674;2022-09-20T01:03:27;16.37;;;7.27;;
21769;SDS011;11046;49.558;8.674;2022-09-20T01:06:31;13.83;;;6.80;;
21769;SDS011;11046;49.558;8.674;2022-09-20T01:09:33;12.70;;;6.83;;
21769;SDS011;11046;49.558;8.674;2022-09-20T01:12:33;18.43;;;6.70;;
21769;SDS011;11046;49.558;8.674;2022-09-20T01:15:36;12.83;;;6.80;;
21769;SDS011;11046;49.558;8.674;2022-09-20T01:18:38;12.20;;;6.70;;
21769;SDS011;11046;49.558;8.674;2022-09-20T01:21:40;17.87;;;7.07;;
21769;SDS011;11046;49.558;8.674;2022-09-20T01:24:50;14.40;;;5.50;;
21769;SDS011;11046;49.558;8.674;2022-09-20T01:27:57;17.03;;;5.27;;
21769;SDS011;11046;49.558;8.674;2022-09-20T01:31:01;9.03;;;4.73;;
21769;SDS011;11046;49.558;8.674;2022-09-20T01:34:13;9.77;;;4.60;;
21769;SDS011;11046;49.558;8.674;2022-09-20T01:37:24;10.37;;;4.40;;
21769;SDS011;11046;49.558;8.674;2022-09-20T01:44:05;10.90;;;4.73;;
21769;SDS011;11046;49.558;8.674;2022-09-20T01:51:13;12.27;;;5.10;;
21769;SDS011;11046;49.558;8.674;2022-09-20T01:54:42;15.70;;;5.40;;
21769;SDS011;11046;49.558;8.674;2022-09-20T02:11:18;12.57;;;5.33;;
21769;SDS011;11046;49.558;8.674;2022-09-20T02:21:26;13.90;;;5.40;;
21769;SDS011;11046;49.558;8.674;2022-09-20T02:50:25;15.03;;;7.33;;
21769;SDS011;11046;49.558;8.674;2022-09-20T02:53:50;12.70;;;6.60;;
21769;SDS011;11046;49.558;8.674;2022-09-20T02:57:04;19.50;;;7.13;;
21769;SDS011;11046;49.558;8.674;2022-09-20T03:00:19;15.87;;;6.80;;
21769;SDS011;11046;49.558;8.674;2022-09-20T03:03:40;12.87;;;6.23;;
21769;SDS011;11046;49.558;8.674;2022-09-20T03:27:32;13.20;;;5.63;;
21769;SDS011;11046;49.558;8.674;2022-09-20T03:51:03;13.00;;;5.80;;
21769;SDS011;11046;49.558;8.674;2022-09-20T04:04:35;11.93;;;5.80;;
21769;SDS011;11046;49.558;8.674;2022-09-20T04:14:08;15.30;;;6.07;;
21769;SDS011;11046;49.558;8.674;2022-09-20T04:21:24;9.63;;;6.00;;
21769;SDS011;11046;49.558;8.674;2022-09-20T04:27:42;17.77;;;5.83;;
21769;SDS011;11046;49.558;8.674;2022-09-20T04:30:45;12.57;;;6.00;;
21769;SDS011;11046;49.558;8.674;2022-09-20T04:33:49;16.37;;;5.80;;
21769;SDS011;11046;49.558;8.674;2022-09-20T04:47:27;12.27;;;5.90;;
21769;SDS011;11046;49.558;8.674;2022-09-20T05:01:18;14.27;;;6.60;;
21769;SDS011;11046;49.558;8.674;2022-09-20T05:14:42;14.50;;;6.37;;
21769;SDS011;11046;49.558;8.674;2022-09-20T05:17:52;15.40;;;7.10;;
21769;SDS011;11046;49.558;8.674;2022-09-20T05:34:49;20.77;;;7.20;;
21769;SDS011;11046;49.558;8.674;2022-09-20T05:38:13;16.67;;;8.57;;
21769;SDS011;11046;49.558;8.674;2022-09-20T05:42:03;17.63;;;7.37;;
21769;SDS011;11046;49.558;8.674;2022-09-20T05:46:10;18.77;;;8.23;;
21769;SDS011;11046;49.558;8.674;2022-09-20T06:01:40;21.27;;;10.50;;
21769;SDS011;11046;49.558;8.674;2022-09-20T06:08:13;19.20;;;10.97;;
21769;SDS011;11046;49.558;8.674;2022-09-20T06:14:46;28.13;;;12.60;;
21769;SDS011;11046;49.558;8.674;2022-09-20T06:18:15;28.50;;;15.17;;
21769;SDS011;11046;49.558;8.674;2022-09-20T06:21:45;27.40;;;14.17;;
21769;SDS011;11046;49.558;8.674;2022-09-20T06:25:03;35.27;;;13.27;;
21769;SDS011;11046;49.558;8.674;2022-09-20T06:28:17;20.77;;;12.70;;
21769;SDS011;11046;49.558;8.674;2022-09-20T06:31:20;25.73;;;11.73;;
21769;SDS011;11046;49.558;8.674;2022-09-20T06:34:21;26.27;;;11.60;;
21769;SDS011;11046;49.558;8.674;2022-09-20T06:40:51;18.97;;;10.17;;
21769;SDS011;11046;49.558;8.674;2022-09-20T06:44:11;25.27;;;10.50;;
21769;SDS011;11046;49.558;8.674;2022-09-20T06:47:12;19.10;;;9.77;;
21769;SDS011;11046;49.558;8.674;2022-09-20T06:50:14;17.40;;;9.30;;
21769;SDS011;11046;49.558;8.674;2022-09-20T06:53:17;25.50;;;8.50;;
21769;SDS011;11046;49.558;8.674;2022-09-20T06:56:24;20.63;;;7.63;;
21769;SDS011;11046;49.558;8.674;2022-09-20T06:59:28;13.53;;;6.27;;
21769;SDS011;11046;49.558;8.674;2022-09-20T07:02:29;9.53;;;5.77;;
21769;SDS011;11046;49.558;8.674;2022-09-20T07:05:29;12.70;;;5.00;;
21769;SDS011;11046;49.558;8.674;2022-09-20T07:08:30;11.57;;;4.30;;
21769;SDS011;11046;49.558;8.674;2022-09-20T07:11:31;10.23;;;4.07;;
21769;SDS011;11046;49.558;8.674;2022-09-20T07:14:33;11.97;;;4.53;;
21769;SDS011;11046;49.558;8.674;2022-09-20T07:17:33;11.90;;;4.10;;
21769;SDS011;11046;49.558;8.674;2022-09-20T07:20:34;9.57;;;4.87;;
21769;SDS011;11046;49.558;8.674;2022-09-20T07:23:35;14.37;;;6.10;;
21769;SDS011;11046;49.558;8.674;2022-09-20T07:26:35;13.27;;;5.30;;
21769;SDS011;11046;49.558;8.674;2022-09-20T07:29:37;12.80;;;5.20;;
21769;SDS011;11046;49.558;8.674;2022-09-20T07:32:40;11.80;;;4.83;;
21769;SDS011;11046;49.558;8.674;2022-09-20T07:35:41;15.30;;;5.70;;
21769;SDS011;11046;49.558;8.674;2022-09-20T07:38:42;15.27;;;5.70;;
21769;SDS011;11046;49.558;8.674;2022-09-20T07:41:47;9.37;;;4.77;;
21769;SDS011;11046;49.558;8.674;2022-09-20T07:44:49;8.80;;;4.60;;
21769;SDS011;11046;49.558;8.674;2022-09-20T07:47:52;11.87;;;4.33;;
21769;SDS011;11046;49.558;8.674;2022-09-20T07:51:06;16.73;;;4.90;;
21769;SDS011;11046;49.558;8.674;2022-09-20T07:54:09;11.85;;;4.38;;
21769;SDS011;11046;49.558;8.674;2022-09-20T07:57:09;8.75;;;4.05;;
21769;SDS011;11046;49.558;8.674;2022-09-20T08:00:11;11.15;;;4.60;;
21769;SDS011;11046;49.558;8.674;2022-09-20T08:03:15;10.07;;;4.18;;
21769;SDS011;11046;49.558;8.674;2022-09-20T08:06:15;10.20;;;4.57;;
21769;SDS011;11046;49.558;8.674;2022-09-20T08:09:17;20.40;;;5.75;;
21769;SDS011;11046;49.558;8.674;2022-09-20T08:12:18;13.90;;;4.45;;
21769;SDS011;11046;49.558;8.674;2022-09-20T08:15:19;12.88;;;4.65;;
21769;SDS011;11046;49.558;8.674;2022-09-20T08:18:19;10.50;;;4.57;;
21769;SDS011;11046;49.558;8.674;2022-09-20T08:21:21;11.77;;;4.82;;
21769;SDS011;11046;49.558;8.674;2022-09-20T08:24:23;10.80;;;4.57;;
21769;SDS011;11046;49.558;8.674;2022-09-20T08:27:25;11.88;;;4.32;;
21769;SDS011;11046;49.558;8.674;2022-09-20T08:30:26;13.73;;;4.80;;
21769;SDS011;11046;49.558;8.674;2022-09-20T08:33:27;13.95;;;4.88;;
21769;SDS011;11046;49.558;8.674;2022-09-20T08:36:28;18.90;;;5.25;;
21769;SDS011;11046;49.558;8.674;2022-09-20T08:39:30;15.98;;;5.15;;
21769;SDS011;11046;49.558;8.674;2022-09-20T08:42:34;14.73;;;4.72;;
21769;SDS011;11046;49.558;8.674;2022-09-20T08:45:35;11.85;;;5.13;;
21769;SDS011;11046;49.558;8.674;2022-09-20T08:48:37;12.05;;;4.90;;
21769;SDS011;11046;49.558;8.674;2022-09-20T08:51:38;13.27;;;5.35;;
21769;SDS011;11046;49.558;8.674;2022-09-20T08:54:41;15.40;;;5.07;;
21769;SDS011;11046;49.558;8.674;2022-09-20T08:57:43;10.57;;;4.75;;
21769;SDS011;11046;49.558;8.674;2022-09-20T09:00:48;10.77;;;4.93;;
21769;SDS011;11046;49.558;8.674;2022-09-20T09:03:52;12.20;;;4.13;;
21769;SDS011;11046;49.558;8.674;2022-09-20T09:07:12;14.85;;;3.72;;
21769;SDS011;11046;49.558;8.674;2022-09-20T09:10:15;11.88;;;3.60;;
21769;SDS011;11046;49.558;8.674;2022-09-20T09:13:27;8.73;;;3.90;;
21769;SDS011;11046;49.558;8.674;2022-09-20T09:16:33;11.38;;;4.18;;
21769;SDS011;11046;49.558;8.674;2022-09-20T09:19:48;14.90;;;4.13;;
21769;SDS011;11046;49.558;8.674;2022-09-20T09:23:01;14.45;;;3.25;;
21769;SDS011;11046;49.558;8.674;2022-09-20T09:26:11;15.43;;;4.57;;
21769;SDS011;11046;49.558;8.674;2022-09-20T09:29:16;12.75;;;3.40;;
21769;SDS011;11046;49.558;8.674;2022-09-20T09:32:26;9.88;;;3.20;;
21769;SDS011;11046;49.558;8.674;2022-09-20T09:35:29;8.85;;;3.45;;
21769;SDS011;11046;49.558;8.674;2022-09-20T09:38:31;7.95;;;3.13;;
21769;SDS011;11046;49.558;8.674;2022-09-20T09:41:37;13.75;;;3.83;;
21769;SDS011;11046;49.558;8.674;2022-09-20T09:44:37;15.93;;;3.42;;
21769;SDS011;11046;49.558;8.674;2022-09-20T09:47:38;8.90;;;3.50;;
21769;SDS011;11046;49.558;8.674;2022-09-20T09:50:39;11.88;;;3.42;;
21769;SDS011;11046;49.558;8.674;2022-09-20T09:53:40;8.80;;;3.67;;
21769;SDS011;11046;49.558;8.674;2022-09-20T10:36:20;13.18;;;2.70;;
21769;SDS011;11046;49.558;8.674;2022-09-20T10:39:30;11.82;;;2.55;;
21769;SDS011;11046;49.558;8.674;2022-09-20T10:42:44;6.75;;;2.45;;
21769;SDS011;11046;49.558;8.674;2022-09-20T11:00:24;7.20;;;2.92;;
21769;SDS011;11046;49.558;8.674;2022-09-20T11:10:12;5.43;;;1.90;;
21769;SDS011;11046;49.558;8.674;2022-09-20T11:16:48;4.57;;;1.67;;
21769;SDS011;11046;49.558;8.674;2022-09-20T11:23:11;8.60;;;3.10;;
21769;SDS011;11046;49.558;8.674;2022-09-20T11:26:22;6.72;;;1.80;;
21769;SDS011;11046;49.558;8.674;2022-09-20T11:36:51;6.95;;;1.60;;
21769;SDS011;11046;49.558;8.674;2022-09-20T11:39:42;4.93;;;1.77;;
21769;SDS011;11046;49.558;8.674;2022-09-20T11:42:51;2.60;;;1.10;;
21769;SDS011;11046;49.558;8.674;2022-09-20T11:45:55;3.70;;;1.30;;
21769;SDS011;11046;49.558;8.674;2022-09-20T11:49:10;3.28;;;1.27;;
21769;SDS011;11046;49.558;8.674;2022-09-20T11:55:22;2.97;;;1.33;;
21769;SDS011;11046;49.558;8.674;2022-09-20T11:58:28;7.50;;;1.30;;
21769;SDS011;11046;49.558;8.674;2022-09-20T12:01:31;3.45;;;1.50;;
21769;SDS011;11046;49.558;8.674;2022-09-20T12:04:35;4.95;;;1.83;;
21769;SDS011;11046;49.558;8.674;2022-09-20T12:07:37;5.00;;;1.92;;
21769;SDS011;11046;49.558;8.674;2022-09-20T12:10:42;5.07;;;2.03;;
21769;SDS011;11046;49.558;8.674;2022-09-20T12:14:03;7.32;;;2.30;;
21769;SDS011;11046;49.558;8.674;2022-09-20T12:24:15;6.15;;;1.98;;
21769;SDS011;11046;49.558;8.674;2022-09-20T12:27:54;7.88;;;2.03;;
21769;SDS011;11046;49.558;8.674;2022-09-20T12:30:42;3.97;;;1.60;;
21769;SDS011;11046;49.558;8.674;2022-09-20T12:33:57;4.22;;;1.60;;
21769;SDS011;11046;49.558;8.674;2022-09-20T12:40:13;5.63;;;1.60;;
21769;SDS011;11046;49.558;8.674;2022-09-20T12:43:16;3.05;;;1.58;;
21769;SDS011;11046;49.558;8.674;2022-09-20T12:46:24;4.93;;;1.70;;
21769;SDS011;11046;49.558;8.674;2022-09-20T12:49:35;4.65;;;1.60;;
21769;SDS011;11046;49.558;8.674;2022-09-20T12:53:00;4.40;;;1.33;;
21769;SDS011;11046;49.558;8.674;2022-09-20T12:59:22;3.08;;;1.20;;
21769;SDS011;11046;49.558;8.674;2022-09-20T13:05:44;3.90;;;1.40;;
21769;SDS011;11046;49.558;8.674;2022-09-20T13:12:00;3.08;;;1.50;;
21769;SDS011;11046;49.558;8.674;2022-09-20T13:15:02;5.22;;;1.58;;
21769;SDS011;11046;49.558;8.674;2022-09-20T13:18:03;5.35;;;1.60;;
21769;SDS011;11046;49.558;8.674;2022-09-20T13:21:05;5.32;;;1.77;;
21769;SDS011;11046;49.558;8.674;2022-09-20T13:24:07;8.65;;;1.70;;
21769;SDS011;11046;49.558;8.674;2022-09-20T13:27:20;5.47;;;1.77;;
21769;SDS011;11046;49.558;8.674;2022-09-20T13:30:28;5.22;;;2.00;;
21769;SDS011;11046;49.558;8.674;2022-09-20T13:33:32;4.20;;;2.05;;
21769;SDS011;11046;49.558;8.674;2022-09-20T13:36:32;4.38;;;1.73;;
21769;SDS011;11046;49.558;8.674;2022-09-20T13:39:35;2.78;;;1.67;;
21769;SDS011;11046;49.558;8.674;2022-09-20T13:42:36;8.07;;;2.33;;
21769;SDS011;11046;49.558;8.674;2022-09-20T13:45:39;5.03;;;2.10;;
21769;SDS011;11046;49.558;8.674;2022-09-20T13:48:47;3.95;;;1.70;;
21769;SDS011;11046;49.558;8.674;2022-09-20T13:51:53;6.20;;;1.80;;
21769;SDS011;11046;49.558;8.674;2022-09-20T13:54:53;3.90;;;1.98;;
21769;SDS011;11046;49.558;8.674;2022-09-20T13:57:55;3.58;;;2.20;;
21769;SDS011;11046;49.558;8.674;2022-09-20T14:01:03;5.40;;;2.28;;
21769;SDS011;11046;49.558;8.674;2022-09-20T14:04:06;5.13;;;2.35;;
21769;SDS011;11046;49.558;8.674;2022-09-20T14:07:12;7.45;;;2.22;;
21769;SDS011;11046;49.558;8.674;2022-09-20T14:13:27;3.78;;;1.60;;
21769;SDS011;11046;49.558;8.674;2022-09-20T14:16:38;3.58;;;1.73;;
21769;SDS011;11046;49.558;8.674;2022-09-20T14:19:45;3.67;;;2.10;;
21769;SDS011;11046;49.558;8.674;2022-09-20T14:22:48;3.15;;;1.73;;
21769;SDS011;11046;49.558;8.674;2022-09-20T14:29:34;4.15;;;1.60;;
21769;SDS011;11046;49.558;8.674;2022-09-20T14:32:51;4.97;;;1.80;;
21769;SDS011;11046;49.558;8.674;2022-09-20T14:35:53;9.30;;;2.30;;
21769;SDS011;11046;49.558;8.674;2022-09-20T14:38:55;4.68;;;2.30;;
21769;SDS011;11046;49.558;8.674;2022-09-20T14:41:59;2.50;;;1.95;;
21769;SDS011;11046;49.558;8.674;2022-09-20T14:44:59;5.22;;;2.55;;
21769;SDS011;11046;49.558;8.674;2022-09-20T14:48:04;7.10;;;2.00;;
21769;SDS011;11046;49.558;8.674;2022-09-20T14:51:24;3.15;;;1.90;;
21769;SDS011;11046;49.558;8.674;2022-09-20T14:54:26;3.22;;;1.80;;
21769;SDS011;11046;49.558;8.674;2022-09-20T14:57:29;3.97;;;2.00;;
21769;SDS011;11046;49.558;8.674;2022-09-20T15:00:44;4.93;;;1.83;;
21769;SDS011;11046;49.558;8.674;2022-09-20T15:03:46;4.35;;;2.33;;
21769;SDS011;11046;49.558;8.674;2022-09-20T15:06:48;4.53;;;2.00;;
21769;SDS011;11046;49.558;8.674;2022-09-20T15:09:49;4.70;;;2.20;;
21769;SDS011;11046;49.558;8.674;2022-09-20T15:12:50;5.20;;;2.10;;
21769;SDS011;11046;49.558;8.674;2022-09-20T15:15:51;5.15;;;2.13;;
21769;SDS011;11046;49.558;8.674;2022-09-20T15:18:53;5.95;;;2.45;;
21769;SDS011;11046;49.558;8.674;2022-09-20T15:21:53;5.57;;;2.53;;
21769;SDS011;11046;49.558;8.674;2022-09-20T15:24:54;4.18;;;1.77;;
21769;SDS011;11046;49.558;8.674;2022-09-20T15:27:55;6.13;;;2.22;;
21769;SDS011;11046;49.558;8.674;2022-09-20T15:30:56;6.07;;;2.67;;
21769;SDS011;11046;49.558;8.674;2022-09-20T15:33:57;6.00;;;2.40;;
21769;SDS011;11046;49.558;8.674;2022-09-20T15:36:58;5.20;;;2.20;;
21769;SDS011;11046;49.558;8.674;2022-09-20T15:39:59;6.15;;;2.30;;
21769;SDS011;11046;49.558;8.674;2022-09-20T15:43:00;11.02;;;3.28;;
21769;SDS011;11046;49.558;8.674;2022-09-20T15:46:17;3.85;;;2.25;;
21769;SDS011;11046;49.558;8.674;2022-09-20T15:49:20;6.70;;;2.65;;
21769;SDS011;11046;49.558;8.674;2022-09-20T15:52:21;3.60;;;2.15;;
21769;SDS011;11046;49.558;8.674;2022-09-20T15:55:23;4.85;;;2.20;;
21769;SDS011;11046;49.558;8.674;2022-09-20T15:58:24;4.80;;;2.67;;
21769;SDS011;11046;49.558;8.674;2022-09-20T16:01:25;6.85;;;2.42;;
21769;SDS011;11046;49.558;8.674;2022-09-20T16:04:27;3.90;;;2.22;;
21769;SDS011;11046;49.558;8.674;2022-09-20T16:07:29;5.65;;;2.38;;
21769;SDS011;11046;49.558;8.674;2022-09-20T16:10:29;5.95;;;2.80;;
21769;SDS011;11046;49.558;8.674;2022-09-20T16:13:31;8.00;;;3.00;;
21769;SDS011;11046;49.558;8.674;2022-09-20T16:16:33;4.28;;;2.60;;
21769;SDS011;11046;49.558;8.674;2022-09-20T16:19:34;4.90;;;2.50;;
21769;SDS011;11046;49.558;8.674;2022-09-20T16:22:34;6.03;;;2.42;;
21769;SDS011;11046;49.558;8.674;2022-09-20T16:25:35;7.97;;;2.55;;
21769;SDS011;11046;49.558;8.674;2022-09-20T16:28:36;3.75;;;1.83;;
21769;SDS011;11046;49.558;8.674;2022-09-20T16:31:37;3.63;;;1.92;;
21769;SDS011;11046;49.558;8.674;2022-09-20T16:34:42;2.83;;;1.73;;
21769;SDS011;11046;49.558;8.674;2022-09-20T16:37:43;4.15;;;1.70;;
21769;SDS011;11046;49.558;8.674;2022-09-20T16:40:48;3.85;;;1.60;;
21769;SDS011;11046;49.558;8.674;2022-09-20T16:43:50;11.82;;;2.20;;
21769;SDS011;11046;49.558;8.674;2022-09-20T16:46:52;6.90;;;2.50;;
21769;SDS011;11046;49.558;8.674;2022-09-20T16:49:52;3.00;;;1.90;;
21769;SDS011;11046;49.558;8.674;2022-09-20T16:52:53;4.70;;;2.42;;
21769;SDS011;11046;49.558;8.674;2022-09-20T16:55:54;4.75;;;2.35;;
21769;SDS011;11046;49.558;8.674;2022-09-20T16:58:55;4.55;;;1.98;;
21769;SDS011;11046;49.558;8.674;2022-09-20T17:01:56;7.13;;;2.75;;
21769;SDS011;11046;49.558;8.674;2022-09-20T17:04:56;13.20;;;3.67;;
21769;SDS011;11046;49.558;8.674;2022-09-20T17:07:57;7.28;;;2.58;;
21769;SDS011;11046;49.558;8.674;2022-09-20T17:10:59;8.57;;;2.20;;
21769;SDS011;11046;49.558;8.674;2022-09-20T17:14:09;3.25;;;2.03;;
21769;SDS011;11046;49.558;8.674;2022-09-20T17:17:10;11.32;;;2.15;;
21769;SDS011;11046;49.558;8.674;2022-09-20T17:20:11;4.80;;;1.90;;
21769;SDS011;11046;49.558;8.674;2022-09-20T17:23:13;4.03;;;2.10;;
21769;SDS011;11046;49.558;8.674;2022-09-20T17:29:17;14.13;;;8.77;;
21769;SDS011;11046;49.558;8.674;2022-09-20T17:32:19;14.43;;;6.40;;
21769;SDS011;11046;49.558;8.674;2022-09-20T17:35:19;7.93;;;2.90;;
21769;SDS011;11046;49.558;8.674;2022-09-20T17:38:20;5.43;;;2.20;;
21769;SDS011;11046;49.558;8.674;2022-09-20T17:41:21;4.80;;;2.40;;
21769;SDS011;11046;49.558;8.674;2022-09-20T17:44:23;4.83;;;2.20;;
21769;SDS011;11046;49.558;8.674;2022-09-20T17:47:24;7.67;;;2.07;;
21769;SDS011;11046;49.558;8.674;2022-09-20T17:50:25;3.53;;;1.70;;
21769;SDS011;11046;49.558;8.674;2022-09-20T17:53:25;5.90;;;1.73;;
21769;SDS011;11046;49.558;8.674;2022-09-20T17:56:26;6.53;;;1.80;;
21769;SDS011;11046;49.558;8.674;2022-09-20T17:59:28;3.70;;;2.47;;
21769;SDS011;11046;49.558;8.674;2022-09-20T18:02:29;4.93;;;2.70;;
21769;SDS011;11046;49.558;8.674;2022-09-20T18:05:30;6.47;;;2.33;;
21769;SDS011;11046;49.558;8.674;2022-09-20T18:08:30;8.73;;;2.47;;
21769;SDS011;11046;49.558;8.674;2022-09-20T18:11:38;8.27;;;2.90;;
21769;SDS011;11046;49.558;8.674;2022-09-20T18:14:45;5.77;;;2.53;;
21769;SDS011;11046;49.558;8.674;2022-09-20T18:17:45;4.17;;;2.60;;
21769;SDS011;11046;49.558;8.674;2022-09-20T18:20:46;5.40;;;2.70;;
21769;SDS011;11046;49.558;8.674;2022-09-20T18:23:48;9.40;;;2.60;;
21769;SDS011;11046;49.558;8.674;2022-09-20T18:26:49;8.83;;;3.20;;
21769;SDS011;11046;49.558;8.674;2022-09-20T18:29:50;8.80;;;2.33;;
21769;SDS011;11046;49.558;8.674;2022-09-20T18:32:51;9.90;;;2.97;;
21769;SDS011;11046;49.558;8.674;2022-09-20T18:35:51;4.97;;;2.87;;
21769;SDS011;11046;49.558;8.674;2022-09-20T18:38:57;4.83;;;2.93;;
21769;SDS011;11046;49.558;8.674;2022-09-20T18:41:59;8.70;;;3.07;;
21769;SDS011;11046;49.558;8.674;2022-09-20T18:45:00;6.43;;;3.20;;
21769;SDS011;11046;49.558;8.674;2022-09-20T18:48:01;6.60;;;3.20;;
21769;SDS011;11046;49.558;8.674;2022-09-20T18:51:02;6.50;;;3.50;;
21769;SDS011;11046;49.558;8.674;2022-09-20T18:54:04;9.43;;;3.27;;
21769;SDS011;11046;49.558;8.674;2022-09-20T18:57:07;12.77;;;5.23;;
21769;SDS011;11046;49.558;8.674;2022-09-20T19:00:10;12.97;;;5.87;;
21769;SDS011;11046;49.558;8.674;2022-09-20T19:03:14;16.80;;;6.43;;
21769;SDS011;11046;49.558;8.674;2022-09-20T19:06:22;19.17;;;8.10;;
21769;SDS011;11046;49.558;8.674;2022-09-20T19:19:53;31.93;;;11.47;;
21769;SDS011;11046;49.558;8.674;2022-09-20T19:23:09;26.77;;;12.70;;
21769;SDS011;11046;49.558;8.674;2022-09-20T19:29:24;10.40;;;6.30;;
21769;SDS011;11046;49.558;8.674;2022-09-20T19:32:26;12.57;;;6.60;;
21769;SDS011;11046;49.558;8.674;2022-09-20T19:35:28;9.23;;;6.50;;
21769;SDS011;11046;49.558;8.674;2022-09-20T19:38:36;14.07;;;8.17;;
21769;SDS011;11046;49.558;8.674;2022-09-20T19:42:09;12.07;;;7.23;;
21769;SDS011;11046;49.558;8.674;2022-09-20T19:48:37;10.83;;;6.33;;
21769;SDS011;11046;49.558;8.674;2022-09-20T19:52:01;13.27;;;6.60;;
21769;SDS011;11046;49.558;8.674;2022-09-20T19:55:11;9.83;;;5.73;;
21769;SDS011;11046;49.558;8.674;2022-09-20T19:58:13;10.90;;;6.43;;
21769;SDS011;11046;49.558;8.674;2022-09-20T20:01:14;11.53;;;6.20;;
21769;SDS011;11046;49.558;8.674;2022-09-20T20:04:15;17.03;;;6.60;;
21769;SDS011;11046;49.558;8.674;2022-09-20T20:17:13;11.27;;;6.00;;
21769;SDS011;11046;49.558;8.674;2022-09-20T20:21:08;12.87;;;7.00;;
21769;SDS011;11046;49.558;8.674;2022-09-20T20:23:56;12.40;;;6.87;;
21769;SDS011;11046;49.558;8.674;2022-09-20T20:27:06;13.47;;;6.23;;
21769;SDS011;11046;49.558;8.674;2022-09-20T20:30:07;8.90;;;5.27;;
21769;SDS011;11046;49.558;8.674;2022-09-20T20:33:14;7.10;;;4.53;;
21769;SDS011;11046;49.558;8.674;2022-09-20T20:36:16;7.40;;;4.33;;
21769;SDS011;11046;49.558;8.674;2022-09-20T20:39:16;9.33;;;4.47;;
21769;SDS011;11046;49.558;8.674;2022-09-20T20:42:17;8.20;;;4.50;;
21769;SDS011;11046;49.558;8.674;2022-09-20T20:45:18;9.97;;;5.50;;
21769;SDS011;11046;49.558;8.674;2022-09-20T20:48:20;11.77;;;5.97;;
21769;SDS011;11046;49.558;8.674;2022-09-20T20:51:21;10.97;;;5.60;;
21769;SDS011;11046;49.558;8.674;2022-09-20T20:54:21;12.90;;;6.80;;
21769;SDS011;11046;49.558;8.674;2022-09-20T20:57:22;11.00;;;6.37;;
21769;SDS011;11046;49.558;8.674;2022-09-20T21:00:23;10.63;;;6.03;;
21769;SDS011;11046;49.558;8.674;2022-09-20T21:03:25;9.37;;;5.43;;
21769;SDS011;11046;49.558;8.674;2022-09-20T21:06:27;10.73;;;6.47;;
21769;SDS011;11046;49.558;8.674;2022-09-20T21:09:29;10.67;;;6.37;;
21769;SDS011;11046;49.558;8.674;2022-09-20T21:12:31;11.87;;;6.40;;
21769;SDS011;11046;49.558;8.674;2022-09-20T21:15:31;13.40;;;5.80;;
21769;SDS011;11046;49.558;8.674;2022-09-20T21:18:32;9.23;;;5.30;;
21769;SDS011;11046;49.558;8.674;2022-09-20T21:21:34;9.13;;;5.13;;
21769;SDS011;11046;49.558;8.674;2022-09-20T21:24:37;9.83;;;5.50;;
21769;SDS011;11046;49.558;8.674;2022-09-20T21:27:38;12.63;;;5.40;;
21769;SDS011;11046;49.558;8.674;2022-09-20T21:30:38;14.13;;;6.00;;
21769;SDS011;11046;49.558;8.674;2022-09-20T21:33:40;9.77;;;5.90;;
21769;SDS011;11046;49.558;8.674;2022-09-20T21:36:41;9.93;;;5.10;;
21769;SDS011;11046;49.558;8.674;2022-09-20T21:39:43;14.03;;;6.17;;
21769;SDS011;11046;49.558;8.674;2022-09-20T21:42:44;8.47;;;5.70;;
21769;SDS011;11046;49.558;8.674;2022-09-20T21:45:45;10.67;;;6.37;;
21769;SDS011;11046;49.558;8.674;2022-09-20T21:48:47;12.13;;;5.93;;
21769;SDS011;11046;49.558;8.674;2022-09-20T21:51:48;10.37;;;6.40;;
21769;SDS011;11046;49.558;8.674;2022-09-20T21:54:51;10.17;;;6.00;;
21769;SDS011;11046;49.558;8.674;2022-09-20T21:57:51;14.67;;;7.10;;
21769;SDS011;11046;49.558;8.674;2022-09-20T22:01:02;12.90;;;6.23;;
21769;SDS011;11046;49.558;8.674;2022-09-20T22:04:05;10.70;;;5.77;;
21769;SDS011;11046;49.558;8.674;2022-09-20T22:07:07;9.37;;;5.60;;
21769;SDS011;11046;49.558;8.674;2022-09-20T22:10:08;10.13;;;4.87;;
21769;SDS011;11046;49.558;8.674;2022-09-20T22:13:09;11.60;;;5.30;;
21769;SDS011;11046;49.558;8.674;2022-09-20T22:16:14;11.37;;;4.93;;
21769;SDS011;11046;49.558;8.674;2022-09-20T22:19:16;9.90;;;5.43;;
21769;SDS011;11046;49.558;8.674;2022-09-20T22:22:17;16.20;;;6.57;;
21769;SDS011;11046;49.558;8.674;2022-09-20T22:25:18;15.07;;;7.27;;
21769;SDS011;11046;49.558;8.674;2022-09-20T22:28:18;12.37;;;6.23;;
21769;SDS011;11046;49.558;8.674;2022-09-20T22:31:20;10.40;;;5.17;;
21769;SDS011;11046;49.558;8.674;2022-09-20T22:34:23;8.70;;;5.13;;
21769;SDS011;11046;49.558;8.674;2022-09-20T22:37:24;13.17;;;5.90;;
21769;SDS011;11046;49.558;8.674;2022-09-20T22:40:24;9.47;;;5.40;;
21769;SDS011;11046;49.558;8.674;2022-09-20T22:43:26;13.13;;;5.60;;
21769;SDS011;11046;49.558;8.674;2022-09-20T22:46:27;9.57;;;5.10;;
21769;SDS011;11046;49.558;8.674;2022-09-20T22:49:29;11.13;;;5.60;;
21769;SDS011;11046;49.558;8.674;2022-09-20T22:52:30;10.20;;;5.63;;
21769;SDS011;11046;49.558;8.674;2022-09-20T22:55:30;11.37;;;5.33;;
21769;SDS011;11046;49.558;8.674;2022-09-20T22:58:35;11.77;;;5.43;;
21769;SDS011;11046;49.558;8.674;2022-09-20T23:01:38;12.00;;;6.10;;
21769;SDS011;11046;49.558;8.674;2022-09-20T23:04:41;9.30;;;4.67;;
21769;SDS011;11046;49.558;8.674;2022-09-20T23:07:41;8.77;;;5.67;;
21769;SDS011;11046;49.558;8.674;2022-09-20T23:10:45;11.57;;;5.77;;
21769;SDS011;11046;49.558;8.674;2022-09-20T23:13:46;9.17;;;6.03;;
21769;SDS011;11046;49.558;8.674;2022-09-20T23:16:54;10.97;;;6.20;;
21769;SDS011;11046;49.558;8.674;2022-09-20T23:19:55;11.47;;;6.27;;
21769;SDS011;11046;49.558;8.674;2022-09-20T23:22:55;11.53;;;6.43;;
21769;SDS011;11046;49.558;8.674;2022-09-20T23:26:06;20.10;;;6.70;;
21769;SDS011;11046;49.558;8.674;2022-09-20T23:29:10;14.37;;;6.13;;
21769;SDS011;11046;49.558;8.674;2022-09-20T23:32:12;13.57;;;5.90;;
21769;SDS011;11046;49.558;8.674;2022-09-20T23:35:13;11.93;;;5.77;;
21769;SDS011;11046;49.558;8.674;2022-09-20T23:38:13;10.40;;;6.23;;
21769;SDS011;11046;49.558;8.674;2022-09-20T23:41:14;11.20;;;5.87;;
21769;SDS011;11046;49.558;8.674;2022-09-20T23:44:17;11.57;;;5.37;;
21769;SDS011;11046;49.558;8.674;2022-09-20T23:47:17;9.70;;;4.93;;
21769;SDS011;11046;49.558;8.674;2022-09-20T23:50:18;9.10;;;5.43;;